Terminal Aerodrome Forecast
Issued by NWS Boston, MA

Home | Current Version | Previous Version | Text Only | Print | Product List | Glossary Off
Versions: 1 2 3 4 5 6 7 8 9 10 11 12 13 14 15 16 17 18 19 20 21 22 23 24 25 26 27 28 29 30 31 32 33 34 35 36 37 38 39
000 FTUS41 KBOX 032334 TAFBOS TAF KBOS 032334Z 0400/0506 09005KT P6SM VCSH SCT130 BKN250 FM040200 04006KT P6SM BKN200 FM040800 04011KT P6SM BKN080 FM041200 04014G22KT P6SM BKN060 FM041500 05015KT P6SM SCT050 FM042100 07012KT P6SM FEW250=

USA.gov is the U.S. government's official web portal to all federal, state and local government web resources and services.